sensor_id;sensor_type;location;lat;lon;timestamp;P1;durP1;ratioP1;P2;durP2;ratioP2
75554;SDS011;66087;53.126;17.960;2023-09-18T00:01:31;14.00;;;9.30;;
75554;SDS011;66087;53.126;17.960;2023-09-18T00:04:11;10.90;;;7.60;;
75554;SDS011;66087;53.126;17.960;2023-09-18T00:07:04;14.10;;;8.70;;
75554;SDS011;66087;53.126;17.960;2023-09-18T00:09:38;16.00;;;9.00;;
75554;SDS011;66087;53.126;17.960;2023-09-18T00:12:44;15.00;;;8.60;;
75554;SDS011;66087;53.126;17.960;2023-09-18T00:15:17;13.50;;;8.70;;
75554;SDS011;66087;53.126;17.960;2023-09-18T00:18:04;13.60;;;8.70;;
75554;SDS011;66087;53.126;17.960;2023-09-18T00:20:37;13.00;;;8.70;;
75554;SDS011;66087;53.126;17.960;2023-09-18T00:23:25;13.70;;;9.50;;
75554;SDS011;66087;53.126;17.960;2023-09-18T00:25:58;14.60;;;8.90;;
75554;SDS011;66087;53.126;17.960;2023-09-18T00:28:48;13.70;;;8.60;;
75554;SDS011;66087;53.126;17.960;2023-09-18T00:31:21;15.30;;;8.70;;
75554;SDS011;66087;53.126;17.960;2023-09-18T00:34:08;13.60;;;8.80;;
75554;SDS011;66087;53.126;17.960;2023-09-18T00:36:41;13.80;;;9.10;;
75554;SDS011;66087;53.126;17.960;2023-09-18T00:39:38;12.70;;;8.00;;
75554;SDS011;66087;53.126;17.960;2023-09-18T00:42:33;14.50;;;8.80;;
75554;SDS011;66087;53.126;17.960;2023-09-18T00:45:26;14.40;;;9.30;;
75554;SDS011;66087;53.126;17.960;2023-09-18T00:48:20;13.10;;;8.40;;
75554;SDS011;66087;53.126;17.960;2023-09-18T00:51:16;13.00;;;8.10;;
75554;SDS011;66087;53.126;17.960;2023-09-18T00:54:10;15.40;;;9.40;;
75554;SDS011;66087;53.126;17.960;2023-09-18T00:57:04;34.60;;;11.30;;
75554;SDS011;66087;53.126;17.960;2023-09-18T01:00:01;27.20;;;9.40;;
75554;SDS011;66087;53.126;17.960;2023-09-18T01:03:16;14.90;;;8.70;;
75554;SDS011;66087;53.126;17.960;2023-09-18T01:06:14;32.60;;;11.40;;
75554;SDS011;66087;53.126;17.960;2023-09-18T01:09:08;24.50;;;9.80;;
75554;SDS011;66087;53.126;17.960;2023-09-18T01:12:10;18.90;;;9.40;;
75554;SDS011;66087;53.126;17.960;2023-09-18T01:15:29;13.00;;;8.90;;
75554;SDS011;66087;53.126;17.960;2023-09-18T01:18:29;15.80;;;9.30;;
75554;SDS011;66087;53.126;17.960;2023-09-18T01:21:23;11.80;;;7.60;;
75554;SDS011;66087;53.126;17.960;2023-09-18T01:24:17;15.80;;;10.20;;
75554;SDS011;66087;53.126;17.960;2023-09-18T01:27:13;14.90;;;8.40;;
75554;SDS011;66087;53.126;17.960;2023-09-18T01:30:11;16.10;;;9.80;;
75554;SDS011;66087;53.126;17.960;2023-09-18T01:35:41;16.00;;;9.20;;
75554;SDS011;66087;53.126;17.960;2023-09-18T01:38:49;15.00;;;9.20;;
75554;SDS011;66087;53.126;17.960;2023-09-18T01:41:23;16.20;;;10.30;;
75554;SDS011;66087;53.126;17.960;2023-09-18T01:44:10;15.30;;;10.40;;
75554;SDS011;66087;53.126;17.960;2023-09-18T01:46:44;14.20;;;9.50;;
75554;SDS011;66087;53.126;17.960;2023-09-18T01:49:32;11.70;;;7.50;;
75554;SDS011;66087;53.126;17.960;2023-09-18T01:52:09;10.00;;;5.60;;
75554;SDS011;66087;53.126;17.960;2023-09-18T01:54:56;16.90;;;10.50;;
75554;SDS011;66087;53.126;17.960;2023-09-18T01:57:29;15.50;;;9.10;;
75554;SDS011;66087;53.126;17.960;2023-09-18T02:00:17;12.90;;;8.80;;
75554;SDS011;66087;53.126;17.960;2023-09-18T02:03:00;14.40;;;9.00;;
75554;SDS011;66087;53.126;17.960;2023-09-18T02:05:47;14.70;;;8.80;;
75554;SDS011;66087;53.126;17.960;2023-09-18T02:08:30;15.70;;;9.60;;
75554;SDS011;66087;53.126;17.960;2023-09-18T02:11:10;16.30;;;9.80;;
75554;SDS011;66087;53.126;17.960;2023-09-18T02:13:50;13.90;;;8.50;;
75554;SDS011;66087;53.126;17.960;2023-09-18T02:16:34;14.20;;;9.00;;
75554;SDS011;66087;53.126;17.960;2023-09-18T02:19:33;14.70;;;9.90;;
75554;SDS011;66087;53.126;17.960;2023-09-18T02:22:13;12.40;;;8.80;;
75554;SDS011;66087;53.126;17.960;2023-09-18T02:24:53;17.20;;;9.80;;
75554;SDS011;66087;53.126;17.960;2023-09-18T02:27:41;14.10;;;8.90;;
75554;SDS011;66087;53.126;17.960;2023-09-18T02:30:15;14.70;;;9.70;;
75554;SDS011;66087;53.126;17.960;2023-09-18T02:33:01;13.90;;;8.90;;
75554;SDS011;66087;53.126;17.960;2023-09-18T02:35:55;13.50;;;8.90;;
75554;SDS011;66087;53.126;17.960;2023-09-18T02:38:51;12.70;;;8.60;;
75554;SDS011;66087;53.126;17.960;2023-09-18T02:41:45;14.60;;;8.80;;
75554;SDS011;66087;53.126;17.960;2023-09-18T02:44:39;14.60;;;8.90;;
75554;SDS011;66087;53.126;17.960;2023-09-18T02:47:33;15.90;;;9.00;;
75554;SDS011;66087;53.126;17.960;2023-09-18T02:50:07;8.30;;;5.30;;
75554;SDS011;66087;53.126;17.960;2023-09-18T02:52:54;12.10;;;8.40;;
75554;SDS011;66087;53.126;17.960;2023-09-18T02:55:30;10.80;;;6.00;;
75554;SDS011;66087;53.126;17.960;2023-09-18T02:58:19;13.90;;;8.80;;
75554;SDS011;66087;53.126;17.960;2023-09-18T03:00:54;15.20;;;10.00;;
75554;SDS011;66087;53.126;17.960;2023-09-18T03:03:43;15.90;;;10.70;;
75554;SDS011;66087;53.126;17.960;2023-09-18T03:06:17;16.10;;;9.70;;
75554;SDS011;66087;53.126;17.960;2023-09-18T03:09:10;16.10;;;10.20;;
75554;SDS011;66087;53.126;17.960;2023-09-18T03:12:06;14.50;;;9.90;;
75554;SDS011;66087;53.126;17.960;2023-09-18T03:14:59;15.50;;;9.70;;
75554;SDS011;66087;53.126;17.960;2023-09-18T03:17:54;12.20;;;8.50;;
75554;SDS011;66087;53.126;17.960;2023-09-18T03:20:48;14.60;;;8.60;;
75554;SDS011;66087;53.126;17.960;2023-09-18T03:23:43;17.40;;;9.80;;
75554;SDS011;66087;53.126;17.960;2023-09-18T03:26:37;16.30;;;10.00;;
75554;SDS011;66087;53.126;17.960;2023-09-18T03:29:31;17.50;;;8.80;;
75554;SDS011;66087;53.126;17.960;2023-09-18T03:32:25;19.70;;;13.90;;
75554;SDS011;66087;53.126;17.960;2023-09-18T03:34:59;14.70;;;10.00;;
75554;SDS011;66087;53.126;17.960;2023-09-18T03:37:47;18.40;;;11.70;;
75554;SDS011;66087;53.126;17.960;2023-09-18T03:40:29;19.60;;;12.60;;
75554;SDS011;66087;53.126;17.960;2023-09-18T03:43:09;19.70;;;13.00;;
75554;SDS011;66087;53.126;17.960;2023-09-18T03:45:50;15.90;;;10.20;;
75554;SDS011;66087;53.126;17.960;2023-09-18T03:48:30;20.80;;;13.60;;
75554;SDS011;66087;53.126;17.960;2023-09-18T03:51:16;18.90;;;11.50;;
75554;SDS011;66087;53.126;17.960;2023-09-18T03:53:56;17.20;;;11.60;;
75554;SDS011;66087;53.126;17.960;2023-09-18T03:56:42;18.70;;;10.60;;
75554;SDS011;66087;53.126;17.960;2023-09-18T03:59:22;20.90;;;13.30;;
75554;SDS011;66087;53.126;17.960;2023-09-18T04:02:02;15.50;;;10.30;;
75554;SDS011;66087;53.126;17.960;2023-09-18T04:04:45;15.80;;;10.70;;
75554;SDS011;66087;53.126;17.960;2023-09-18T04:07:28;9.20;;;5.10;;
75554;SDS011;66087;53.126;17.960;2023-09-18T04:10:15;14.20;;;8.80;;
75554;SDS011;66087;53.126;17.960;2023-09-18T04:12:53;16.80;;;10.90;;
75554;SDS011;66087;53.126;17.960;2023-09-18T04:15:42;14.20;;;8.60;;
75554;SDS011;66087;53.126;17.960;2023-09-18T04:18:16;15.80;;;10.60;;
75554;SDS011;66087;53.126;17.960;2023-09-18T04:21:23;16.60;;;10.60;;
75554;SDS011;66087;53.126;17.960;2023-09-18T04:24:05;17.40;;;10.40;;
75554;SDS011;66087;53.126;17.960;2023-09-18T04:26:45;15.90;;;9.50;;
75554;SDS011;66087;53.126;17.960;2023-09-18T04:29:25;17.50;;;12.20;;
75554;SDS011;66087;53.126;17.960;2023-09-18T04:32:07;14.40;;;9.50;;
75554;SDS011;66087;53.126;17.960;2023-09-18T04:34:41;19.60;;;11.00;;
75554;SDS011;66087;53.126;17.960;2023-09-18T04:37:22;17.70;;;11.60;;
75554;SDS011;66087;53.126;17.960;2023-09-18T04:40:02;16.60;;;10.50;;
75554;SDS011;66087;53.126;17.960;2023-09-18T04:42:47;16.00;;;10.50;;
75554;SDS011;66087;53.126;17.960;2023-09-18T04:45:27;16.90;;;10.40;;
75554;SDS011;66087;53.126;17.960;2023-09-18T04:48:08;20.50;;;11.10;;
75554;SDS011;66087;53.126;17.960;2023-09-18T04:50:49;16.10;;;10.60;;
75554;SDS011;66087;53.126;17.960;2023-09-18T04:53:36;17.10;;;10.60;;
75554;SDS011;66087;53.126;17.960;2023-09-18T04:56:34;12.00;;;7.50;;
75554;SDS011;66087;53.126;17.960;2023-09-18T04:59:28;15.70;;;10.80;;
75554;SDS011;66087;53.126;17.960;2023-09-18T05:02:22;16.30;;;10.90;;
75554;SDS011;66087;53.126;17.960;2023-09-18T05:05:18;18.00;;;11.30;;
75554;SDS011;66087;53.126;17.960;2023-09-18T05:08:12;20.00;;;11.90;;
75554;SDS011;66087;53.126;17.960;2023-09-18T05:10:45;20.20;;;12.00;;
75554;SDS011;66087;53.126;17.960;2023-09-18T05:13:34;17.60;;;11.00;;
75554;SDS011;66087;53.126;17.960;2023-09-18T05:16:07;16.60;;;10.60;;
75554;SDS011;66087;53.126;17.960;2023-09-18T05:18:54;18.00;;;11.50;;
75554;SDS011;66087;53.126;17.960;2023-09-18T05:21:27;18.50;;;12.20;;
75554;SDS011;66087;53.126;17.960;2023-09-18T05:24:20;16.50;;;10.90;;
75554;SDS011;66087;53.126;17.960;2023-09-18T05:27:00;18.10;;;11.60;;
75554;SDS011;66087;53.126;17.960;2023-09-18T05:29:47;18.50;;;10.20;;
75554;SDS011;66087;53.126;17.960;2023-09-18T05:32:32;21.20;;;11.90;;
75554;SDS011;66087;53.126;17.960;2023-09-18T05:35:28;16.30;;;11.50;;
75554;SDS011;66087;53.126;17.960;2023-09-18T05:38:01;15.70;;;10.30;;
75554;SDS011;66087;53.126;17.960;2023-09-18T05:40:35;18.70;;;9.50;;
75554;SDS011;66087;53.126;17.960;2023-09-18T05:43:22;19.70;;;10.20;;
75554;SDS011;66087;53.126;17.960;2023-09-18T05:45:56;19.50;;;11.60;;
75554;SDS011;66087;53.126;17.960;2023-09-18T05:48:29;16.50;;;11.50;;
75554;SDS011;66087;53.126;17.960;2023-09-18T05:51:35;19.10;;;12.40;;
75554;SDS011;66087;53.126;17.960;2023-09-18T05:54:28;20.20;;;11.40;;
75554;SDS011;66087;53.126;17.960;2023-09-18T05:57:17;19.80;;;12.30;;
75554;SDS011;66087;53.126;17.960;2023-09-18T06:00:04;17.80;;;11.90;;
75554;SDS011;66087;53.126;17.960;2023-09-18T06:02:56;17.40;;;9.10;;
75554;SDS011;66087;53.126;17.960;2023-09-18T06:05:29;16.30;;;10.90;;
75554;SDS011;66087;53.126;17.960;2023-09-18T06:08:16;19.60;;;11.40;;
75554;SDS011;66087;53.126;17.960;2023-09-18T06:10:49;12.10;;;8.50;;
75554;SDS011;66087;53.126;17.960;2023-09-18T06:13:37;15.80;;;11.20;;
75554;SDS011;66087;53.126;17.960;2023-09-18T06:16:35;15.60;;;10.90;;
75554;SDS011;66087;53.126;17.960;2023-09-18T06:19:34;16.70;;;11.00;;
75554;SDS011;66087;53.126;17.960;2023-09-18T06:22:07;15.70;;;10.60;;
75554;SDS011;66087;53.126;17.960;2023-09-18T06:24:56;20.60;;;11.30;;
75554;SDS011;66087;53.126;17.960;2023-09-18T06:27:29;18.90;;;12.20;;
75554;SDS011;66087;53.126;17.960;2023-09-18T06:30:17;16.50;;;11.40;;
75554;SDS011;66087;53.126;17.960;2023-09-18T06:32:51;19.20;;;11.60;;
75554;SDS011;66087;53.126;17.960;2023-09-18T06:35:27;18.10;;;11.00;;
75554;SDS011;66087;53.126;17.960;2023-09-18T06:38:07;17.20;;;10.60;;
75554;SDS011;66087;53.126;17.960;2023-09-18T06:40:42;20.00;;;11.00;;
75554;SDS011;66087;53.126;17.960;2023-09-18T06:43:16;16.90;;;9.70;;
75554;SDS011;66087;53.126;17.960;2023-09-18T06:45:56;14.60;;;10.80;;
75554;SDS011;66087;53.126;17.960;2023-09-18T06:48:43;13.40;;;9.50;;
75554;SDS011;66087;53.126;17.960;2023-09-18T06:51:23;15.10;;;9.20;;
75554;SDS011;66087;53.126;17.960;2023-09-18T06:54:17;14.90;;;9.50;;
75554;SDS011;66087;53.126;17.960;2023-09-18T06:56:50;12.80;;;9.00;;
75554;SDS011;66087;53.126;17.960;2023-09-18T06:59:38;11.60;;;8.90;;
75554;SDS011;66087;53.126;17.960;2023-09-18T07:02:11;15.20;;;10.00;;
75554;SDS011;66087;53.126;17.960;2023-09-18T07:04:58;14.40;;;9.30;;
75554;SDS011;66087;53.126;17.960;2023-09-18T07:07:31;15.40;;;9.90;;
75554;SDS011;66087;53.126;17.960;2023-09-18T07:10:18;18.40;;;10.80;;
75554;SDS011;66087;53.126;17.960;2023-09-18T07:12:51;18.80;;;11.60;;
75554;SDS011;66087;53.126;17.960;2023-09-18T07:15:38;14.20;;;10.60;;
75554;SDS011;66087;53.126;17.960;2023-09-18T07:18:15;13.30;;;9.10;;
75554;SDS011;66087;53.126;17.960;2023-09-18T07:21:02;13.70;;;10.40;;
75554;SDS011;66087;53.126;17.960;2023-09-18T07:23:42;13.90;;;9.20;;
75554;SDS011;66087;53.126;17.960;2023-09-18T07:26:23;14.10;;;9.50;;
75554;SDS011;66087;53.126;17.960;2023-09-18T07:29:04;15.00;;;8.90;;
75554;SDS011;66087;53.126;17.960;2023-09-18T07:34:24;12.90;;;8.10;;
75554;SDS011;66087;53.126;17.960;2023-09-18T07:37:11;13.50;;;8.60;;
75554;SDS011;66087;53.126;17.960;2023-09-18T07:39:45;13.30;;;8.80;;
75554;SDS011;66087;53.126;17.960;2023-09-18T07:42:39;15.30;;;10.20;;
75554;SDS011;66087;53.126;17.960;2023-09-18T07:45:37;9.00;;;6.30;;
75554;SDS011;66087;53.126;17.960;2023-09-18T07:48:51;18.70;;;10.50;;
75554;SDS011;66087;53.126;17.960;2023-09-18T07:51:46;16.20;;;9.40;;
75554;SDS011;66087;53.126;17.960;2023-09-18T07:54:43;17.30;;;9.40;;
75554;SDS011;66087;53.126;17.960;2023-09-18T07:57:37;13.80;;;9.10;;
75554;SDS011;66087;53.126;17.960;2023-09-18T08:00:34;15.10;;;8.70;;
75554;SDS011;66087;53.126;17.960;2023-09-18T08:03:32;14.80;;;8.80;;
75554;SDS011;66087;53.126;17.960;2023-09-18T08:06:28;15.30;;;9.40;;
75554;SDS011;66087;53.126;17.960;2023-09-18T08:09:22;12.90;;;9.30;;
75554;SDS011;66087;53.126;17.960;2023-09-18T08:11:58;13.30;;;8.80;;
75554;SDS011;66087;53.126;17.960;2023-09-18T08:14:48;13.90;;;8.80;;
75554;SDS011;66087;53.126;17.960;2023-09-18T08:17:35;12.00;;;8.40;;
75554;SDS011;66087;53.126;17.960;2023-09-18T08:20:22;14.60;;;8.80;;
75554;SDS011;66087;53.126;17.960;2023-09-18T08:22:55;13.20;;;8.90;;
75554;SDS011;66087;53.126;17.960;2023-09-18T08:26:03;11.70;;;8.10;;
75554;SDS011;66087;53.126;17.960;2023-09-18T08:28:37;13.00;;;8.70;;
75554;SDS011;66087;53.126;17.960;2023-09-18T08:31:25;12.30;;;8.60;;
75554;SDS011;66087;53.126;17.960;2023-09-18T08:34:01;13.30;;;9.50;;
75554;SDS011;66087;53.126;17.960;2023-09-18T08:36:49;12.80;;;9.10;;
75554;SDS011;66087;53.126;17.960;2023-09-18T08:39:22;12.10;;;8.70;;
75554;SDS011;66087;53.126;17.960;2023-09-18T08:42:18;12.50;;;8.00;;
75554;SDS011;66087;53.126;17.960;2023-09-18T08:48:21;18.60;;;8.30;;
75554;SDS011;66087;53.126;17.960;2023-09-18T08:51:22;7.80;;;4.60;;
75554;SDS011;66087;53.126;17.960;2023-09-18T08:54:17;11.00;;;6.90;;
75554;SDS011;66087;53.126;17.960;2023-09-18T08:56:52;14.10;;;8.00;;
75554;SDS011;66087;53.126;17.960;2023-09-18T08:59:46;12.70;;;7.30;;
75554;SDS011;66087;53.126;17.960;2023-09-18T09:02:23;11.90;;;7.10;;
75554;SDS011;66087;53.126;17.960;2023-09-18T09:05:11;11.70;;;7.50;;
75554;SDS011;66087;53.126;17.960;2023-09-18T09:07:45;11.00;;;7.00;;
75554;SDS011;66087;53.126;17.960;2023-09-18T09:10:34;8.70;;;6.20;;
75554;SDS011;66087;53.126;17.960;2023-09-18T09:13:07;10.40;;;6.90;;
75554;SDS011;66087;53.126;17.960;2023-09-18T09:15:55;10.70;;;7.30;;
75554;SDS011;66087;53.126;17.960;2023-09-18T09:18:30;7.80;;;4.90;;
75554;SDS011;66087;53.126;17.960;2023-09-18T09:21:39;8.10;;;5.10;;
75554;SDS011;66087;53.126;17.960;2023-09-18T09:24:13;8.90;;;5.90;;
75554;SDS011;66087;53.126;17.960;2023-09-18T09:27:00;10.60;;;5.40;;
75554;SDS011;66087;53.126;17.960;2023-09-18T09:29:36;12.90;;;6.00;;
75554;SDS011;66087;53.126;17.960;2023-09-18T09:32:33;10.30;;;6.60;;
75554;SDS011;66087;53.126;17.960;2023-09-18T09:35:09;12.10;;;5.40;;
75554;SDS011;66087;53.126;17.960;2023-09-18T09:37:59;11.80;;;5.50;;
75554;SDS011;66087;53.126;17.960;2023-09-18T09:40:34;10.00;;;5.90;;
75554;SDS011;66087;53.126;17.960;2023-09-18T09:43:29;8.50;;;7.10;;
75554;SDS011;66087;53.126;17.960;2023-09-18T09:46:29;13.30;;;5.20;;
75554;SDS011;66087;53.126;17.960;2023-09-18T09:49:23;5.30;;;3.60;;
75554;SDS011;66087;53.126;17.960;2023-09-18T09:52:18;7.50;;;4.90;;
75554;SDS011;66087;53.126;17.960;2023-09-18T09:54:55;9.20;;;5.30;;
75554;SDS011;66087;53.126;17.960;2023-09-18T09:57:48;6.80;;;3.90;;
75554;SDS011;66087;53.126;17.960;2023-09-18T10:00:45;8.40;;;5.20;;
75554;SDS011;66087;53.126;17.960;2023-09-18T10:03:28;6.40;;;4.70;;
75554;SDS011;66087;53.126;17.960;2023-09-18T10:06:12;8.00;;;4.90;;
75554;SDS011;66087;53.126;17.960;2023-09-18T10:08:55;8.10;;;4.40;;
75554;SDS011;66087;53.126;17.960;2023-09-18T10:11:43;8.80;;;4.80;;
75554;SDS011;66087;53.126;17.960;2023-09-18T10:14:20;6.90;;;5.10;;
75554;SDS011;66087;53.126;17.960;2023-09-18T10:17:17;5.90;;;4.00;;
75554;SDS011;66087;53.126;17.960;2023-09-18T10:19:54;12.40;;;7.90;;
75554;SDS011;66087;53.126;17.960;2023-09-18T10:22:56;9.60;;;4.80;;
75554;SDS011;66087;53.126;17.960;2023-09-18T10:25:36;9.40;;;5.00;;
75554;SDS011;66087;53.126;17.960;2023-09-18T10:28:44;7.20;;;4.70;;
75554;SDS011;66087;53.126;17.960;2023-09-18T10:31:19;8.30;;;4.30;;
75554;SDS011;66087;53.126;17.960;2023-09-18T10:34:09;7.60;;;5.30;;
75554;SDS011;66087;53.126;17.960;2023-09-18T10:36:46;4.60;;;2.10;;
75554;SDS011;66087;53.126;17.960;2023-09-18T10:39:37;10.70;;;5.20;;
75554;SDS011;66087;53.126;17.960;2023-09-18T10:45:14;7.70;;;4.70;;
75554;SDS011;66087;53.126;17.960;2023-09-18T10:47:55;7.00;;;4.60;;
75554;SDS011;66087;53.126;17.960;2023-09-18T10:53:19;6.40;;;5.00;;
75554;SDS011;66087;53.126;17.960;2023-09-18T10:56:16;8.30;;;5.80;;
75554;SDS011;66087;53.126;17.960;2023-09-18T10:58:57;8.70;;;5.30;;
75554;SDS011;66087;53.126;17.960;2023-09-18T11:01:47;7.90;;;4.40;;
75554;SDS011;66087;53.126;17.960;2023-09-18T11:04:22;7.80;;;5.30;;
75554;SDS011;66087;53.126;17.960;2023-09-18T11:07:01;4.90;;;3.40;;
75554;SDS011;66087;53.126;17.960;2023-09-18T11:09:43;9.00;;;4.50;;
75554;SDS011;66087;53.126;17.960;2023-09-18T11:12:41;8.00;;;4.80;;
75554;SDS011;66087;53.126;17.960;2023-09-18T11:15:30;7.90;;;5.30;;
75554;SDS011;66087;53.126;17.960;2023-09-18T11:18:13;6.80;;;4.90;;
75554;SDS011;66087;53.126;17.960;2023-09-18T11:21:07;8.80;;;5.40;;
75554;SDS011;66087;53.126;17.960;2023-09-18T11:23:42;8.20;;;5.10;;
75554;SDS011;66087;53.126;17.960;2023-09-18T11:26:16;10.40;;;4.70;;
75554;SDS011;66087;53.126;17.960;2023-09-18T11:29:02;7.40;;;5.00;;
75554;SDS011;66087;53.126;17.960;2023-09-18T11:31:41;11.70;;;5.30;;
75554;SDS011;66087;53.126;17.960;2023-09-18T11:34:24;9.60;;;5.50;;
75554;SDS011;66087;53.126;17.960;2023-09-18T11:37:22;6.90;;;4.50;;
75554;SDS011;66087;53.126;17.960;2023-09-18T11:39:58;8.50;;;4.80;;
75554;SDS011;66087;53.126;17.960;2023-09-18T11:46:01;8.10;;;4.60;;
75554;SDS011;66087;53.126;17.960;2023-09-18T11:48:37;12.70;;;5.50;;
75554;SDS011;66087;53.126;17.960;2023-09-18T11:51:30;6.70;;;4.80;;
75554;SDS011;66087;53.126;17.960;2023-09-18T11:54:03;6.50;;;4.00;;
75554;SDS011;66087;53.126;17.960;2023-09-18T11:56:52;7.20;;;4.20;;
75554;SDS011;66087;53.126;17.960;2023-09-18T12:02:26;6.60;;;3.50;;
75554;SDS011;66087;53.126;17.960;2023-09-18T12:05:05;6.40;;;4.30;;
75554;SDS011;66087;53.126;17.960;2023-09-18T12:07:57;8.10;;;3.50;;
75554;SDS011;66087;53.126;17.960;2023-09-18T12:10:31;7.20;;;3.50;;
75554;SDS011;66087;53.126;17.960;2023-09-18T12:13:26;4.90;;;3.60;;
75554;SDS011;66087;53.126;17.960;2023-09-18T12:19:16;7.50;;;4.20;;
75554;SDS011;66087;53.126;17.960;2023-09-18T12:22:12;7.30;;;3.80;;
75554;SDS011;66087;53.126;17.960;2023-09-18T12:25:09;6.80;;;3.90;;
75554;SDS011;66087;53.126;17.960;2023-09-18T12:28:05;5.80;;;4.00;;
75554;SDS011;66087;53.126;17.960;2023-09-18T12:31:02;9.30;;;4.50;;
75554;SDS011;66087;53.126;17.960;2023-09-18T12:33:46;8.70;;;3.20;;
75554;SDS011;66087;53.126;17.960;2023-09-18T12:36:33;6.30;;;3.80;;
75554;SDS011;66087;53.126;17.960;2023-09-18T12:39:13;6.60;;;3.80;;
75554;SDS011;66087;53.126;17.960;2023-09-18T12:42:01;5.50;;;3.70;;
75554;SDS011;66087;53.126;17.960;2023-09-18T12:44:48;9.10;;;4.80;;
75554;SDS011;66087;53.126;17.960;2023-09-18T12:47:37;12.60;;;4.80;;
75554;SDS011;66087;53.126;17.960;2023-09-18T12:50:13;7.80;;;4.70;;
75554;SDS011;66087;53.126;17.960;2023-09-18T12:53:07;7.30;;;4.30;;
75554;SDS011;66087;53.126;17.960;2023-09-18T12:55:49;8.40;;;4.40;;
75554;SDS011;66087;53.126;17.960;2023-09-18T12:58:36;7.10;;;4.50;;
75554;SDS011;66087;53.126;17.960;2023-09-18T13:01:12;6.90;;;4.50;;
75554;SDS011;66087;53.126;17.960;2023-09-18T13:04:00;6.60;;;3.40;;
75554;SDS011;66087;53.126;17.960;2023-09-18T13:07:05;9.40;;;4.20;;
75554;SDS011;66087;53.126;17.960;2023-09-18T13:12:52;5.80;;;3.50;;
75554;SDS011;66087;53.126;17.960;2023-09-18T13:15:40;7.10;;;5.30;;
75554;SDS011;66087;53.126;17.960;2023-09-18T13:18:16;7.90;;;5.20;;
75554;SDS011;66087;53.126;17.960;2023-09-18T13:21:09;9.80;;;5.50;;
75554;SDS011;66087;53.126;17.960;2023-09-18T13:23:44;9.20;;;5.60;;
75554;SDS011;66087;53.126;17.960;2023-09-18T13:26:32;7.10;;;4.40;;
75554;SDS011;66087;53.126;17.960;2023-09-18T13:29:07;6.60;;;4.90;;
75554;SDS011;66087;53.126;17.960;2023-09-18T13:31:57;7.50;;;5.00;;
75554;SDS011;66087;53.126;17.960;2023-09-18T13:34:50;6.40;;;5.00;;
75554;SDS011;66087;53.126;17.960;2023-09-18T13:37:37;7.10;;;5.40;;
75554;SDS011;66087;53.126;17.960;2023-09-18T13:40:11;6.00;;;4.70;;
75554;SDS011;66087;53.126;17.960;2023-09-18T13:42:59;6.80;;;5.00;;
75554;SDS011;66087;53.126;17.960;2023-09-18T13:45:40;7.80;;;5.10;;
75554;SDS011;66087;53.126;17.960;2023-09-18T13:48:39;5.70;;;4.80;;
75554;SDS011;66087;53.126;17.960;2023-09-18T13:51:20;6.30;;;5.10;;
75554;SDS011;66087;53.126;17.960;2023-09-18T13:54:00;8.80;;;4.20;;
75554;SDS011;66087;53.126;17.960;2023-09-18T13:56:40;6.60;;;5.00;;
75554;SDS011;66087;53.126;17.960;2023-09-18T13:59:20;6.60;;;4.30;;
75554;SDS011;66087;53.126;17.960;2023-09-18T14:02:00;6.70;;;4.80;;
75554;SDS011;66087;53.126;17.960;2023-09-18T14:04:42;6.40;;;3.80;;
75554;SDS011;66087;53.126;17.960;2023-09-18T14:07:25;6.80;;;4.70;;
75554;SDS011;66087;53.126;17.960;2023-09-18T14:10:11;6.60;;;4.60;;
75554;SDS011;66087;53.126;17.960;2023-09-18T14:12:46;9.20;;;4.90;;
75554;SDS011;66087;53.126;17.960;2023-09-18T14:15:42;9.10;;;4.70;;
75554;SDS011;66087;53.126;17.960;2023-09-18T14:18:36;8.00;;;4.90;;
75554;SDS011;66087;53.126;17.960;2023-09-18T14:21:30;6.80;;;4.90;;
75554;SDS011;66087;53.126;17.960;2023-09-18T14:24:27;8.50;;;4.60;;
75554;SDS011;66087;53.126;17.960;2023-09-18T14:27:22;7.90;;;3.90;;
75554;SDS011;66087;53.126;17.960;2023-09-18T14:30:21;7.00;;;4.30;;
75554;SDS011;66087;53.126;17.960;2023-09-18T14:33:18;6.60;;;4.90;;
75554;SDS011;66087;53.126;17.960;2023-09-18T14:36:12;8.70;;;5.20;;
75554;SDS011;66087;53.126;17.960;2023-09-18T14:39:06;9.00;;;4.90;;
75554;SDS011;66087;53.126;17.960;2023-09-18T14:42:00;9.50;;;4.80;;
75554;SDS011;66087;53.126;17.960;2023-09-18T14:44:54;6.80;;;4.90;;
75554;SDS011;66087;53.126;17.960;2023-09-18T14:47:27;7.00;;;5.20;;
75554;SDS011;66087;53.126;17.960;2023-09-18T14:50:14;9.20;;;6.30;;
75554;SDS011;66087;53.126;17.960;2023-09-18T14:52:48;8.20;;;5.70;;
75554;SDS011;66087;53.126;17.960;2023-09-18T14:55:35;9.20;;;6.10;;
75554;SDS011;66087;53.126;17.960;2023-09-18T14:58:08;8.10;;;5.80;;
75554;SDS011;66087;53.126;17.960;2023-09-18T15:00:58;7.40;;;5.70;;
75554;SDS011;66087;53.126;17.960;2023-09-18T15:03:32;8.30;;;6.00;;
75554;SDS011;66087;53.126;17.960;2023-09-18T15:06:19;9.50;;;5.70;;
75554;SDS011;66087;53.126;17.960;2023-09-18T15:08:54;10.60;;;5.90;;
75554;SDS011;66087;53.126;17.960;2023-09-18T15:11:43;10.00;;;6.20;;
75554;SDS011;66087;53.126;17.960;2023-09-18T15:14:36;8.90;;;6.00;;
75554;SDS011;66087;53.126;17.960;2023-09-18T15:17:31;9.40;;;5.80;;
75554;SDS011;66087;53.126;17.960;2023-09-18T15:20:25;8.80;;;6.00;;
75554;SDS011;66087;53.126;17.960;2023-09-18T15:23:21;11.20;;;5.60;;
75554;SDS011;66087;53.126;17.960;2023-09-18T15:26:17;7.60;;;6.00;;
75554;SDS011;66087;53.126;17.960;2023-09-18T15:29:31;9.00;;;5.80;;
75554;SDS011;66087;53.126;17.960;2023-09-18T15:32:25;9.80;;;6.60;;
75554;SDS011;66087;53.126;17.960;2023-09-18T15:35:19;8.60;;;6.80;;
75554;SDS011;66087;53.126;17.960;2023-09-18T15:38:14;9.60;;;6.50;;
75554;SDS011;66087;53.126;17.960;2023-09-18T15:41:09;9.30;;;6.70;;
75554;SDS011;66087;53.126;17.960;2023-09-18T15:44:05;8.90;;;6.20;;
75554;SDS011;66087;53.126;17.960;2023-09-18T15:46:39;8.80;;;5.90;;
75554;SDS011;66087;53.126;17.960;2023-09-18T15:49:26;10.00;;;6.70;;
75554;SDS011;66087;53.126;17.960;2023-09-18T15:51:59;11.00;;;6.30;;
75554;SDS011;66087;53.126;17.960;2023-09-18T15:54:46;9.70;;;6.10;;
75554;SDS011;66087;53.126;17.960;2023-09-18T15:57:19;12.20;;;7.60;;
75554;SDS011;66087;53.126;17.960;2023-09-18T16:00:06;10.80;;;6.70;;
75554;SDS011;66087;53.126;17.960;2023-09-18T16:02:43;10.00;;;7.30;;
75554;SDS011;66087;53.126;17.960;2023-09-18T16:05:31;10.00;;;6.10;;
75554;SDS011;66087;53.126;17.960;2023-09-18T16:08:25;9.70;;;6.80;;
75554;SDS011;66087;53.126;17.960;2023-09-18T16:10:58;10.80;;;6.50;;
75554;SDS011;66087;53.126;17.960;2023-09-18T16:13:38;11.70;;;6.80;;
75554;SDS011;66087;53.126;17.960;2023-09-18T16:16:19;10.10;;;6.60;;
75554;SDS011;66087;53.126;17.960;2023-09-18T16:18:59;10.20;;;7.30;;
75554;SDS011;66087;53.126;17.960;2023-09-18T16:21:42;11.00;;;6.60;;
75554;SDS011;66087;53.126;17.960;2023-09-18T16:24:29;11.60;;;7.70;;
75554;SDS011;66087;53.126;17.960;2023-09-18T16:27:03;10.50;;;7.00;;
75554;SDS011;66087;53.126;17.960;2023-09-18T16:29:53;10.50;;;7.30;;
75554;SDS011;66087;53.126;17.960;2023-09-18T16:32:28;11.30;;;6.50;;
75554;SDS011;66087;53.126;17.960;2023-09-18T16:35:16;10.60;;;7.00;;
75554;SDS011;66087;53.126;17.960;2023-09-18T16:37:49;13.00;;;7.20;;
75554;SDS011;66087;53.126;17.960;2023-09-18T16:40:36;10.50;;;7.80;;